Time;durP1;ratioP1;P1;durP2;ratioP2;P2;SDS_P1;SDS_P2;PMS_P1;PMS_P2;Temp;Humidity;BMP_temperature;BMP_pressure;BME280_temperature;BME280_humidity;BME280_pressure;Samples;Min_cycle;Max_cycle;Signal;HPM_P1;HPM_P2
2022/02/20 00:00:44;;;;;;;;;;;;;;;5.72;59.50;100125.94;4319335;33;20003;-86
2022/02/20 00:03:09;;;;;;;;;;;;;;;5.65;59.50;100126.81;4319233;33;19979;-86
2022/02/20 00:05:36;;;;;;;;;;;;;;;5.62;59.50;100131.16;4319684;33;19995;-86
2022/02/20 00:08:02;;;;;;;;;;;;;;;5.51;59.49;100126.94;4332859;33;20003;-86
2022/02/20 00:10:27;;;;;;;;;;;;;;;5.49;59.49;100125.22;4335004;33;20043;-86
2022/02/20 00:12:52;;;;;;;;;;;;;;;5.50;59.49;100126.94;4332697;33;20004;-85
2022/02/20 00:15:18;;;;;;;;;;;;;;;5.47;59.49;100127.81;4319073;33;20352;-86
2022/02/20 00:17:43;;;;;;;;;;;;;;;5.15;59.47;100135.69;4307085;33;20258;-86
2022/02/20 00:20:09;;;;;;;;;;;;;;;4.97;59.46;100135.78;4319196;33;20007;-85
2022/02/20 00:22:34;;;;;;;;;;;;;;;5.12;59.47;100133.13;4319235;33;19975;-86
2022/02/20 00:25:00;;;;;;;;;;;;;;;4.91;59.46;100141.78;4332560;33;20406;-86
2022/02/20 00:27:26;;;;;;;;;;;;;;;4.87;59.46;100139.22;4332639;33;20006;-86
2022/02/20 00:29:51;;;;;;;;;;;;;;;5.10;59.47;100134.00;4332693;33;19992;-86
2022/02/20 00:32:16;;;;;;;;;;;;;;;5.01;59.46;100134.03;4333705;33;20646;-86
2022/02/20 00:34:41;;;;;;;;;;;;;;;4.90;59.45;100132.34;4318367;33;22362;-86
2022/02/20 00:37:07;;;;;;;;;;;;;;;5.01;59.46;100131.47;4332387;33;20023;-86
2022/02/20 00:39:32;;;;;;;;;;;;;;;5.01;59.47;100129.72;4332391;33;20035;-86
2022/02/20 00:41:58;;;;;;;;;;;;;;;4.92;59.46;100125.44;4318872;33;20069;-86
2022/02/20 00:44:23;;;;;;;;;;;;;;;5.20;59.48;100122.75;4330941;33;19987;-86
2022/02/20 00:46:48;;;;;;;;;;;;;;;5.00;59.46;100133.19;4318315;33;24292;-86
2022/02/20 00:49:13;;;;;;;;;;;;;;;4.99;59.46;100125.44;4318512;33;20018;-86
2022/02/20 00:51:39;;;;;;;;;;;;;;;4.96;59.46;100126.28;4332331;33;20223;-85
2022/02/20 00:54:08;;;;;;;;;;;;;;;4.98;59.46;100121.16;4339837;33;19949;-85
2022/02/20 00:56:33;;;;;;;;;;;;;;;4.86;59.45;100122.88;4334961;33;19982;-85
2022/02/20 00:58:58;;;;;;;;;;;;;;;4.86;59.45;100114.28;4346621;32;19984;-86
2022/02/20 01:01:23;;;;;;;;;;;;;;;4.91;59.46;100113.41;4318628;33;20023;-86
2022/02/20 01:03:48;;;;;;;;;;;;;;;4.82;59.46;100108.28;4332801;33;20031;-85
2022/02/20 01:06:14;;;;;;;;;;;;;;;4.65;59.45;100112.63;4318054;33;34145;-86
2022/02/20 01:08:39;;;;;;;;;;;;;;;4.79;59.46;100110.88;4318201;33;22242;-85
2022/02/20 01:11:05;;;;;;;;;;;;;;;4.88;59.46;100104.81;4330582;33;19995;-85
2022/02/20 01:13:30;;;;;;;;;;;;;;;4.75;59.45;100105.75;4318176;33;19987;-85
2022/02/20 01:15:55;;;;;;;;;;;;;;;4.75;59.45;100100.59;4317799;33;27411;-86
2022/02/20 01:18:20;;;;;;;;;;;;;;;4.68;59.44;100109.19;4317878;33;26488;-85
2022/02/20 01:20:45;;;;;;;;;;;;;;;4.59;59.44;100098.03;4318192;33;20012;-86
2022/02/20 01:23:11;;;;;;;;;;;;;;;4.50;59.44;100102.38;4331609;33;19988;-86
2022/02/20 01:25:36;;;;;;;;;;;;;;;4.57;59.44;100094.59;4331842;33;19980;-85
2022/02/20 01:28:02;;;;;;;;;;;;;;;4.35;59.42;100099.81;4320975;33;20027;-85
2022/02/20 01:30:27;;;;;;;;;;;;;;;4.44;59.43;100095.47;4331834;33;20317;-85
2022/02/20 01:32:52;;;;;;;;;;;;;;;4.24;59.42;100100.66;4332009;33;20043;-86
2022/02/20 01:35:17;;;;;;;;;;;;;;;4.28;59.43;100099.81;4318249;33;20235;-85
2022/02/20 01:37:42;;;;;;;;;;;;;;;4.56;59.44;100090.31;4317927;33;21798;-86
2022/02/20 01:40:08;;;;;;;;;;;;;;;4.58;59.44;100083.44;4331748;33;20004;-85
2022/02/20 01:42:34;;;;;;;;;;;;;;;4.49;59.44;100072.25;4318168;33;19986;-85
2022/02/20 01:44:59;;;;;;;;;;;;;;;4.40;59.43;100070.56;4331558;33;20015;-86
2022/02/20 01:47:24;;;;;;;;;;;;;;;4.51;59.44;100063.69;4318129;33;20076;-85
2022/02/20 01:49:50;;;;;;;;;;;;;;;4.51;59.44;100063.69;4318466;33;19999;-85
2022/02/20 01:52:15;;;;;;;;;;;;;;;4.49;59.44;100064.53;4330634;33;29875;-85
2022/02/20 01:54:40;;;;;;;;;;;;;;;4.38;59.43;100072.31;4330738;33;27088;-86
2022/02/20 01:57:05;;;;;;;;;;;;;;;4.37;59.43;100070.59;4330667;33;35168;-86
2022/02/20 01:59:31;;;;;;;;;;;;;;;4.33;59.42;100061.16;4317797;33;19983;-85
2022/02/20 02:01:56;;;;;;;;;;;;;;;4.29;59.43;100059.44;4318966;33;20010;-85
2022/02/20 02:04:21;;;;;;;;;;;;;;;4.27;59.42;100054.28;4333379;33;20035;-85
2022/02/20 02:06:47;;;;;;;;;;;;;;;4.36;59.43;100049.97;4307705;33;20267;-86
2022/02/20 02:09:13;;;;;;;;;;;;;;;4.31;59.42;100043.13;4320367;33;20000;-87
2022/02/20 02:11:38;;;;;;;;;;;;;;;4.37;59.43;100041.38;4321829;33;19991;-86
2022/02/20 02:14:03;;;;;;;;;;;;;;;4.39;59.42;100032.78;4322114;33;19998;-86
2022/02/20 02:16:28;;;;;;;;;;;;;;;4.41;59.42;100031.06;4335792;33;28278;-86
2022/02/20 02:18:54;;;;;;;;;;;;;;;4.18;59.41;100022.50;4346176;33;19974;-86
2022/02/20 02:21:19;;;;;;;;;;;;;;;4.35;59.43;100023.34;4331690;33;30471;-86
2022/02/20 02:23:44;;;;;;;;;;;;;;;4.43;59.43;100019.00;4333562;33;20019;-86
2022/02/20 02:26:09;;;;;;;;;;;;;;;4.35;59.42;100009.59;4307723;33;20028;-86
2022/02/20 02:28:35;;;;;;;;;;;;;;;4.45;59.43;100013.84;4319957;33;19991;-86
2022/02/20 02:31:03;;;;;;;;;;;;;;;4.46;59.43;100006.13;4333427;33;20006;-86
2022/02/20 02:33:28;;;;;;;;;;;;;;;4.50;59.44;100002.69;4319882;33;20015;-86
2022/02/20 02:35:54;;;;;;;;;;;;;;;4.24;59.42;100004.47;4319768;33;20479;-86
2022/02/20 02:38:25;;;;;;;;;;;;;;;4.13;59.41;100004.50;4332975;33;19984;-87
2022/02/20 02:40:50;;;;;;;;;;;;;;;4.14;59.41;100001.06;4333365;33;19972;-86
2022/02/20 02:43:15;;;;;;;;;;;;;;;4.28;59.42;99998.47;4319460;33;21292;-87
2022/02/20 02:45:41;;;;;;;;;;;;;;;4.18;59.42;100004.47;4321673;33;21294;-87
2022/02/20 02:48:06;;;;;;;;;;;;;;;4.14;59.42;99998.47;4319602;33;29390;-86
2022/02/20 02:50:31;;;;;;;;;;;;;;;4.35;59.42;99996.72;4319226;33;22144;-86
2022/02/20 02:52:56;;;;;;;;;;;;;;;4.25;59.42;99999.28;4319650;33;20007;-86
2022/02/20 02:55:22;;;;;;;;;;;;;;;4.07;59.41;100006.22;4319222;33;20059;-87
2022/02/20 02:57:47;;;;;;;;;;;;;;;4.11;59.41;100005.38;4333164;33;19979;-87
2022/02/20 03:00:13;;;;;;;;;;;;;;;4.23;59.42;100006.19;4319001;33;34520;-87
2022/02/20 03:02:39;;;;;;;;;;;;;;;4.40;59.42;99993.25;4307416;33;20254;-86
2022/02/20 03:05:05;;;;;;;;;;;;;;;4.30;59.42;100001.88;4319839;33;20363;-86
2022/02/20 03:07:30;;;;;;;;;;;;;;;4.44;59.43;100010.41;4321924;33;19995;-87
2022/02/20 03:09:55;;;;;;;;;;;;;;;4.21;59.42;100007.03;4319406;33;20326;-86
2022/02/20 03:12:21;;;;;;;;;;;;;;;4.29;59.42;100003.63;4319024;33;20010;-86
2022/02/20 03:14:46;;;;;;;;;;;;;;;4.29;59.42;99998.47;4307325;33;19991;-86
2022/02/20 03:17:11;;;;;;;;;;;;;;;4.37;59.43;100001.00;4306988;33;25809;-86
2022/02/20 03:19:36;;;;;;;;;;;;;;;4.19;59.41;100003.63;4307346;33;20031;-87
2022/02/20 03:22:02;;;;;;;;;;;;;;;4.27;59.43;99995.03;4319438;33;20074;-86
2022/02/20 03:24:27;;;;;;;;;;;;;;;4.39;59.42;99993.25;4333131;33;19984;-86
2022/02/20 03:26:53;;;;;;;;;;;;;;;4.30;59.42;99995.00;4333564;33;19998;-86
2022/02/20 03:29:18;;;;;;;;;;;;;;;4.34;59.42;100003.59;4319786;33;20003;-86
2022/02/20 03:31:43;;;;;;;;;;;;;;;4.22;59.42;99999.31;4319116;33;20000;-86
2022/02/20 03:34:08;;;;;;;;;;;;;;;4.37;59.43;100000.16;4319387;33;20018;-86
2022/02/20 03:36:34;;;;;;;;;;;;;;;4.41;59.42;99984.66;4319050;33;20031;-86
2022/02/20 03:38:59;;;;;;;;;;;;;;;4.22;59.42;99988.16;4319440;33;19979;-87
2022/02/20 03:41:24;;;;;;;;;;;;;;;4.17;59.42;99983.00;4318683;33;33004;-86
2022/02/20 03:43:49;;;;;;;;;;;;;;;4.31;59.43;99990.72;4319071;33;19987;-87
2022/02/20 03:46:15;;;;;;;;;;;;;;;4.09;59.41;99999.34;4319359;33;20004;-87
2022/02/20 03:48:40;;;;;;;;;;;;;;;4.24;59.42;99995.00;4319379;33;19994;-86
2022/02/20 03:51:05;;;;;;;;;;;;;;;4.06;59.42;99994.22;4306657;33;23207;-86
2022/02/20 03:53:30;;;;;;;;;;;;;;;4.05;59.42;100006.25;4319363;33;20356;-87
2022/02/20 03:55:56;;;;;;;;;;;;;;;3.95;59.40;100004.50;4332854;33;19980;-87
2022/02/20 03:58:21;;;;;;;;;;;;;;;4.37;59.43;99992.41;4319318;33;19998;-86
2022/02/20 04:00:46;;;;;;;;;;;;;;;4.23;59.42;100007.91;4319427;33;20368;-87
2022/02/20 04:03:11;;;;;;;;;;;;;;;4.14;59.42;100007.94;4333089;33;20015;-86
2022/02/20 04:05:37;;;;;;;;;;;;;;;4.04;59.40;100001.09;4319673;33;19988;-87
2022/02/20 04:08:02;;;;;;;;;;;;;;;4.06;59.42;100012.25;4319470;33;20074;-86
2022/02/20 04:10:27;;;;;;;;;;;;;;;3.95;59.40;100007.94;4307013;33;20018;-85
2022/02/20 04:12:53;;;;;;;;;;;;;;;4.09;59.41;100010.53;4332412;33;20397;-86
2022/02/20 04:15:18;;;;;;;;;;;;;;;3.94;59.40;100007.94;4332742;33;20019;-86
2022/02/20 04:17:44;;;;;;;;;;;;;;;4.07;59.41;100004.50;4332026;33;27281;-86
2022/02/20 04:20:09;;;;;;;;;;;;;;;4.10;59.41;100006.22;4332623;33;20031;-86
2022/02/20 04:22:35;;;;;;;;;;;;;;;3.89;59.39;100010.53;4334831;33;19976;-86
2022/02/20 04:25:00;;;;;;;;;;;;;;;3.99;59.41;100011.38;4317973;33;19996;-87
2022/02/20 04:27:25;;;;;;;;;;;;;;;3.83;59.40;100005.41;4318639;33;19991;-86
2022/02/20 04:29:50;;;;;;;;;;;;;;;3.75;59.38;100006.25;4318417;33;28623;-87
2022/02/20 04:32:16;;;;;;;;;;;;;;;3.87;59.39;99996.81;4318675;33;20004;-87
2022/02/20 04:34:41;;;;;;;;;;;;;;;3.67;59.38;99996.81;4318797;33;20019;-86
2022/02/20 04:37:06;;;;;;;;;;;;;;;3.76;59.39;99993.37;4306756;33;19995;-86
2022/02/20 04:39:31;;;;;;;;;;;;;;;3.72;59.39;99995.94;4318851;33;19998;-86
2022/02/20 04:41:58;;;;;;;;;;;;;;;3.59;59.38;99992.53;4332398;33;20016;-87
2022/02/20 04:44:23;;;;;;;;;;;;;;;3.75;59.38;99996.81;4334625;33;19988;-87
2022/02/20 04:46:49;;;;;;;;;;;;;;;3.64;59.38;99995.97;4318702;33;20300;-86
2022/02/20 04:49:14;;;;;;;;;;;;;;;3.57;59.38;100001.97;4332232;33;20529;-86
2022/02/20 04:51:39;;;;;;;;;;;;;;;3.80;59.39;100005.41;4318649;33;19995;-86
2022/02/20 04:54:04;;;;;;;;;;;;;;;3.65;59.39;100013.13;4318573;33;20023;-86
2022/02/20 04:56:30;;;;;;;;;;;;;;;3.47;59.38;100011.38;4318462;33;20051;-86
2022/02/20 04:58:55;;;;;;;;;;;;;;;3.37;59.36;100015.69;4332221;33;20011;-86
2022/02/20 05:01:20;;;;;;;;;;;;;;;3.39;59.37;100016.53;4332239;33;20286;-86
2022/02/20 05:03:46;;;;;;;;;;;;;;;3.23;59.35;100007.06;4306456;33;19984;-86
2022/02/20 05:06:12;;;;;;;;;;;;;;;3.10;59.35;100005.34;4318846;33;19980;-87
2022/02/20 05:08:37;;;;;;;;;;;;;;;3.28;59.36;99995.06;4318894;33;19992;-87
2022/02/20 05:11:02;;;;;;;;;;;;;;;3.08;59.35;99995.06;4319416;33;20007;-87
2022/02/20 05:13:28;;;;;;;;;;;;;;;3.04;59.35;99995.03;4319781;33;20011;-86
2022/02/20 05:15:53;;;;;;;;;;;;;;;3.05;59.35;99991.59;4321159;33;19998;-87
2022/02/20 05:18:18;;;;;;;;;;;;;;;3.13;59.35;99989.91;4322888;33;31667;-86
2022/02/20 05:20:44;;;;;;;;;;;;;;;3.32;59.37;99994.25;4318954;33;19991;-86
2022/02/20 05:23:09;;;;;;;;;;;;;;;3.32;59.36;99986.53;4332265;33;20368;-86
2022/02/20 05:25:34;;;;;;;;;;;;;;;3.41;59.37;99987.38;4318577;33;20015;-86
2022/02/20 05:28:00;;;;;;;;;;;;;;;3.36;59.36;99985.66;4331868;33;19980;-87
2022/02/20 05:30:25;;;;;;;;;;;;;;;3.32;59.37;99990.81;4318239;33;20306;-86
2022/02/20 05:32:50;;;;;;;;;;;;;;;3.15;59.35;99987.34;4318089;33;19983;-86
2022/02/20 05:35:15;;;;;;;;;;;;;;;3.14;59.35;99991.63;4331785;33;19984;-86
2022/02/20 05:37:44;;;;;;;;;;;;;;;2.94;59.35;99989.00;4333581;33;19984;-86
2022/02/20 05:40:10;;;;;;;;;;;;;;;3.01;59.34;99997.59;4308873;33;20456;-86
2022/02/20 05:42:35;;;;;;;;;;;;;;;3.17;59.34;99996.78;4333784;33;19994;-87
2022/02/20 05:45:01;;;;;;;;;;;;;;;3.05;59.35;99999.31;4319774;33;20000;-86
2022/02/20 05:47:26;;;;;;;;;;;;;;;3.19;59.36;99999.34;4320096;33;20092;-87
2022/02/20 05:49:51;;;;;;;;;;;;;;;3.33;59.37;99987.38;4319914;33;20475;-87
2022/02/20 05:52:16;;;;;;;;;;;;;;;3.20;59.36;99985.63;4319997;33;20018;-86
2022/02/20 05:54:42;;;;;;;;;;;;;;;3.11;59.35;99983.06;4307747;33;20007;-86
2022/02/20 05:57:07;;;;;;;;;;;;;;;3.09;59.34;99988.19;4319752;33;20023;-87
2022/02/20 05:59:32;;;;;;;;;;;;;;;3.15;59.35;99977.06;4320118;33;20500;-87
2022/02/20 06:01:57;;;;;;;;;;;;;;;3.24;59.35;99971.91;4320372;33;20258;-87
2022/02/20 06:04:23;;;;;;;;;;;;;;;3.12;59.35;99971.91;4320064;33;19976;-86
2022/02/20 06:06:48;;;;;;;;;;;;;;;3.27;59.36;99965.06;4319952;33;20311;-86
2022/02/20 06:09:13;;;;;;;;;;;;;;;3.23;59.35;99968.47;4332803;33;22064;-86
2022/02/20 06:11:38;;;;;;;;;;;;;;;3.15;59.35;99967.62;4319588;33;20015;-86
2022/02/20 06:14:03;;;;;;;;;;;;;;;3.33;59.37;99967.66;4319173;33;29376;-86
2022/02/20 06:16:29;;;;;;;;;;;;;;;3.39;59.37;99965.06;4319859;33;20019;-86
2022/02/20 06:18:54;;;;;;;;;;;;;;;3.29;59.36;99965.06;4320094;33;20283;-86
2022/02/20 06:21:19;;;;;;;;;;;;;;;3.36;59.36;99964.22;4334220;33;20080;-86
2022/02/20 06:23:44;;;;;;;;;;;;;;;3.56;59.38;99974.53;4335714;33;19990;-86
2022/02/20 06:26:10;;;;;;;;;;;;;;;3.79;59.39;99967.66;4322075;33;20542;-86
2022/02/20 06:28:35;;;;;;;;;;;;;;;3.81;59.39;99962.50;4340476;33;20012;-86
2022/02/20 06:31:00;;;;;;;;;;;;;;;3.97;59.41;99962.44;4334810;33;35251;-86
2022/02/20 06:33:25;;;;;;;;;;;;;;;4.00;59.40;99957.28;4347683;33;28073;-87
2022/02/20 06:35:51;;;;;;;;;;;;;;;4.05;59.41;99962.44;4322309;33;20112;-87
2022/02/20 06:38:16;;;;;;;;;;;;;;;4.21;59.42;99960.66;4320214;33;20023;-86
2022/02/20 06:40:41;;;;;;;;;;;;;;;4.14;59.41;99977.00;4319280;33;22582;-86
2022/02/20 06:43:06;;;;;;;;;;;;;;;4.29;59.42;99970.13;4306869;33;33753;-86
2022/02/20 06:45:31;;;;;;;;;;;;;;;4.51;59.43;99967.47;4306987;33;20940;-86
2022/02/20 06:47:57;;;;;;;;;;;;;;;4.61;59.44;99957.09;4332646;33;19995;-87
2022/02/20 06:50:22;;;;;;;;;;;;;;;4.70;59.44;99952.75;4319763;33;20027;-86
2022/02/20 06:52:47;;;;;;;;;;;;;;;4.83;59.45;99947.53;4318962;33;29436;-86
2022/02/20 06:55:12;;;;;;;;;;;;;;;4.97;59.46;99934.56;4307471;33;19992;-87
2022/02/20 06:57:38;;;;;;;;;;;;;;;5.12;59.47;99929.28;4335493;33;20310;-86
2022/02/20 07:00:06;;;;;;;;;;;;;;;5.23;59.47;99931.78;4319605;33;20003;-86
2022/02/20 07:02:31;;;;;;;;;;;;;;;5.50;59.49;99920.38;4319896;33;19984;-87
2022/02/20 07:04:57;;;;;;;;;;;;;;;5.67;59.49;99917.63;4319862;33;20019;-86
2022/02/20 07:07:22;;;;;;;;;;;;;;;6.02;59.52;99907.00;4333525;33;20015;-86
2022/02/20 07:09:47;;;;;;;;;;;;;;;6.29;59.54;99904.06;4319710;33;20401;-86
2022/02/20 07:12:12;;;;;;;;;;;;;;;6.38;59.54;99900.50;4319657;33;20015;-86
2022/02/20 07:14:38;;;;;;;;;;;;;;;6.68;59.55;99907.88;4319529;33;19992;-86
2022/02/20 07:17:03;;;;;;;;;;;;;;;6.75;59.56;99913.81;4320097;33;20011;-87
2022/02/20 07:19:28;;;;;;;;;;;;;;;7.08;59.57;99910.72;4333097;33;20014;-86
2022/02/20 07:21:53;;;;;;;;;;;;;;;7.21;59.58;99907.97;4319397;33;20023;-86
2022/02/20 07:24:19;;;;;;;;;;;;;;;7.42;59.60;99899.00;4306555;33;34828;-87
2022/02/20 07:26:44;;;;;;;;;;;;;;;7.63;59.61;99891.72;4319483;33;19992;-87
2022/02/20 07:29:09;;;;;;;;;;;;;;;7.77;59.62;99890.59;4319508;33;19976;-86
2022/02/20 07:31:35;;;;;;;;;;;;;;;7.60;59.60;99896.97;4319397;33;20372;-86
2022/02/20 07:34:00;;;;;;;;;;;;;;;7.98;59.62;99908.34;4319377;33;20042;-87
2022/02/20 07:36:25;;;;;;;;;;;;;;;8.13;59.64;99907.22;4332958;33;19987;-86
2022/02/20 07:38:50;;;;;;;;;;;;;;;8.09;59.63;99896.06;4319730;33;20020;-86
2022/02/20 07:41:16;;;;;;;;;;;;;;;8.10;59.63;99912.47;4333122;33;22819;-86
2022/02/20 07:43:44;;;;;;;;;;;;;;;8.35;59.64;99908.53;4334267;33;19987;-86
2022/02/20 07:46:09;;;;;;;;;;;;;;;8.42;59.65;99904.91;4335133;33;19984;-86
2022/02/20 07:48:34;;;;;;;;;;;;;;;8.50;59.65;99915.97;4321467;33;26610;-86
2022/02/20 07:50:59;;;;;;;;;;;;;;;8.53;59.66;99921.12;4336082;33;19972;-86
2022/02/20 07:53:26;;;;;;;;;;;;;;;8.58;59.66;99913.22;4344832;33;20018;-86
2022/02/20 07:55:51;;;;;;;;;;;;;;;8.82;59.68;99919.63;4319397;33;20549;-87
2022/02/20 07:58:19;;;;;;;;;;;;;;;8.94;59.68;99901.16;4307000;33;20014;-86
2022/02/20 08:00:44;;;;;;;;;;;;;;;8.98;59.69;99905.41;4319745;33;19999;-86
2022/02/20 08:03:10;;;;;;;;;;;;;;;9.29;59.71;99905.56;4319762;33;20008;-86
2022/02/20 08:05:35;;;;;;;;;;;;;;;9.44;59.71;99912.09;4319479;33;20018;-86
2022/02/20 08:08:00;;;;;;;;;;;;;;;9.44;59.71;99917.28;4332814;33;19995;-87
2022/02/20 08:10:26;;;;;;;;;;;;;;;9.28;59.70;99926.38;4319106;33;20019;-86
2022/02/20 08:12:51;;;;;;;;;;;;;;;9.44;59.71;99931.13;4332612;33;20354;-86
2022/02/20 08:15:17;;;;;;;;;;;;;;;9.57;59.71;99930.84;4333191;33;20047;-86
2022/02/20 08:17:45;;;;;;;;;;;;;;;9.65;59.72;99934.94;4319102;33;20054;-86
2022/02/20 08:20:11;;;;;;;;;;;;;;;9.70;59.72;99943.50;4319231;33;20394;-86
2022/02/20 08:22:36;;;;;;;;;;;;;;;9.70;59.72;99955.63;4319130;33;20412;-86
2022/02/20 08:25:02;;;;;;;;;;;;;;;9.79;59.73;99950.22;4318323;33;30175;-86
2022/02/20 08:27:27;;;;;;;;;;;;;;;9.77;59.72;99959.78;4318945;33;20015;-86
2022/02/20 08:29:54;;;;;;;;;;;;;;;9.61;59.72;99959.31;4332187;33;20369;-87
2022/02/20 08:32:19;;;;;;;;;;;;;;;9.68;59.72;99968.66;4319108;33;20304;-86
2022/02/20 08:34:45;;;;;;;;;;;;;;;9.81;59.73;99961.41;4321378;33;20024;-86
2022/02/20 08:37:10;;;;;;;;;;;;;;;10.16;59.74;99952.69;4332667;33;19992;-87
2022/02/20 08:39:35;;;;;;;;;;;;;;;10.20;59.75;99954.31;4332412;33;19994;-87
2022/02/20 08:42:00;;;;;;;;;;;;;;;10.11;59.75;99950.22;4318871;33;20040;-87
2022/02/20 08:44:26;;;;;;;;;;;;;;;10.19;59.75;99968.22;4331964;33;22061;-86
2022/02/20 08:46:51;;;;;;;;;;;;;;;10.26;59.76;99969.78;4332024;33;22233;-87
2022/02/20 08:49:16;;;;;;;;;;;;;;;10.27;59.75;99973.25;4318901;33;19980;-86
2022/02/20 08:51:41;;;;;;;;;;;;;;;10.42;59.76;99980.66;4332217;33;19991;-86
2022/02/20 08:54:07;;;;;;;;;;;;;;;10.37;59.76;99985.09;4332183;33;20010;-87
2022/02/20 08:56:32;;;;;;;;;;;;;;;10.23;59.75;99980.28;4319705;33;20010;-87
2022/02/20 08:58:58;;;;;;;;;;;;;;;10.14;59.74;99990.88;4320165;33;30955;-86
2022/02/20 09:01:24;;;;;;;;;;;;;;;9.97;59.74;99993.94;4321383;33;20082;-86
2022/02/20 09:03:50;;;;;;;;;;;;;;;9.58;59.72;99992.31;4309847;33;19995;-87
2022/02/20 09:06:15;;;;;;;;;;;;;;;9.75;59.72;99983.22;4333159;33;19999;-87
2022/02/20 09:08:41;;;;;;;;;;;;;;;9.93;59.73;99973.25;4346955;33;19980;-86
2022/02/20 09:11:06;;;;;;;;;;;;;;;10.10;59.75;99973.66;4325668;33;20333;-86
2022/02/20 09:13:31;;;;;;;;;;;;;;;10.09;59.75;99977.16;4334955;33;19976;-88
2022/02/20 09:15:57;;;;;;;;;;;;;;;10.11;59.75;99988.38;4321325;33;31970;-85
2022/02/20 09:18:22;;;;;;;;;;;;;;;10.25;59.76;99990.66;4319906;33;26552;-86
2022/02/20 09:20:47;;;;;;;;;;;;;;;10.19;59.75;99994.25;4320293;33;20011;-85
2022/02/20 09:23:13;;;;;;;;;;;;;;;10.40;59.77;99990.22;4333937;33;20010;-86
2022/02/20 09:25:40;;;;;;;;;;;;;;;10.46;59.75;99995.28;4333795;33;20002;-86
2022/02/20 09:28:06;;;;;;;;;;;;;;;10.21;59.75;99995.09;4297054;33;779702;-85
2022/02/20 09:30:31;;;;;;;;;;;;;;;10.19;59.76;99989.03;4320517;33;19996;-85
2022/02/20 09:32:57;;;;;;;;;;;;;;;10.27;59.75;99994.91;4336274;33;20017;-86
2022/02/20 09:35:24;;;;;;;;;;;;;;;10.48;59.77;99984.81;4320498;33;19996;-85
2022/02/20 09:37:49;;;;;;;;;;;;;;;10.44;59.76;99981.47;4308255;33;19996;-86
2022/02/20 09:40:14;;;;;;;;;;;;;;;10.81;59.79;99970.81;4320060;33;20445;-86
2022/02/20 09:42:40;;;;;;;;;;;;;;;11.15;59.81;99975.91;4320269;33;20039;-86
2022/02/20 09:45:05;;;;;;;;;;;;;;;11.19;59.81;99972.28;4320155;33;19983;-86
2022/02/20 09:47:31;;;;;;;;;;;;;;;11.38;59.82;99960.41;4334003;33;19987;-86
2022/02/20 09:49:57;;;;;;;;;;;;;;;11.58;59.82;99958.88;4320176;33;20027;-87
2022/02/20 09:52:22;;;;;;;;;;;;;;;11.70;59.84;99971.53;4309896;33;19999;-86
2022/02/20 09:54:47;;;;;;;;;;;;;;;11.76;59.84;99960.03;4333664;33;19988;-86
2022/02/20 09:57:13;;;;;;;;;;;;;;;11.89;59.84;99959.62;4320243;33;20406;-85
2022/02/20 09:59:39;;;;;;;;;;;;;;;11.90;59.85;99950.88;4333687;33;19979;-87
2022/02/20 10:02:08;;;;;;;;;;;;;;;11.83;59.84;99953.72;4320274;33;19995;-86
2022/02/20 10:04:43;;;;;;;;;;;;;;;11.82;59.84;99955.47;4320172;33;20342;-86
2022/02/20 10:07:27;;;;;;;;;;;;;;;11.83;59.84;99952.00;4334000;33;19975;-86
2022/02/20 10:09:53;;;;;;;;;;;;;;;11.49;59.82;99959.19;4333539;33;19987;-86
2022/02/20 10:12:19;;;;;;;;;;;;;;;11.56;59.82;99947.66;4333794;33;20039;-86
2022/02/20 10:14:44;;;;;;;;;;;;;;;11.66;59.83;99941.25;4309889;33;20002;-86
2022/02/20 10:17:13;;;;;;;;;;;;;;;12.01;59.85;99931.38;4335575;33;32001;-86
2022/02/20 10:20:02;;;;;;;;;;;;;;;12.04;59.85;99923.44;4323462;33;20544;-87
2022/02/20 10:22:38;;;;;;;;;;;;;;;12.20;59.86;99919.41;4340444;33;20003;-86
2022/02/20 10:25:03;;;;;;;;;;;;;;;12.10;59.85;99920.62;4335826;33;19968;-86
2022/02/20 10:27:28;;;;;;;;;;;;;;;12.24;59.86;99920.97;4334700;33;19976;-86
2022/02/20 10:30:14;;;;;;;;;;;;;;;12.22;59.87;99907.13;4333362;33;19999;-86
2022/02/20 10:32:39;;;;;;;;;;;;;;;12.35;59.88;99903.19;4324489;33;19995;-86
2022/02/20 10:35:05;;;;;;;;;;;;;;;12.51;59.88;99899.09;4320039;33;19980;-86
2022/02/20 10:37:32;;;;;;;;;;;;;;;12.69;59.89;99901.91;4319915;33;19995;-86
2022/02/20 10:39:57;;;;;;;;;;;;;;;12.57;59.88;99905.84;4333503;33;19984;-86
2022/02/20 10:42:24;;;;;;;;;;;;;;;12.90;59.90;99901.94;4319996;33;20091;-86
2022/02/20 10:44:57;;;;;;;;;;;;;;;12.86;59.90;99905.59;4320030;33;19980;-86
2022/02/20 10:47:22;;;;;;;;;;;;;;;12.97;59.91;99899.06;4333537;33;20487;-87
2022/02/20 10:49:48;;;;;;;;;;;;;;;12.81;59.90;99910.16;4322134;33;20059;-86
2022/02/20 10:52:29;;;;;;;;;;;;;;;12.96;59.91;99900.00;4333229;33;20395;-87
2022/02/20 10:55:04;;;;;;;;;;;;;;;12.77;59.89;99890.25;4319960;33;19976;-86
2022/02/20 10:57:36;;;;;;;;;;;;;;;12.68;59.89;99895.00;4319792;33;19980;-86
2022/02/20 11:00:15;;;;;;;;;;;;;;;12.65;59.89;99906.41;4319965;33;19995;-87
2022/02/20 11:02:40;;;;;;;;;;;;;;;12.49;59.88;99890.47;4320150;33;19984;-86
2022/02/20 11:05:06;;;;;;;;;;;;;;;12.64;59.88;99888.19;4333543;33;20010;-87
2022/02/20 11:07:31;;;;;;;;;;;;;;;12.81;59.90;99893.63;4319804;33;19990;-86
2022/02/20 11:09:56;;;;;;;;;;;;;;;12.71;59.89;99890.50;4307939;33;19984;-86
2022/02/20 11:12:21;;;;;;;;;;;;;;;12.77;59.89;99892.00;4333111;33;19987;-86
2022/02/20 11:14:47;;;;;;;;;;;;;;;13.04;59.91;99877.88;4332939;33;19988;-86
2022/02/20 11:17:12;;;;;;;;;;;;;;;13.15;59.91;99885.28;4333162;33;20031;-86
2022/02/20 11:19:37;;;;;;;;;;;;;;;13.37;59.93;99869.59;4319629;33;20035;-86
2022/02/20 11:22:03;;;;;;;;;;;;;;;13.59;59.94;99880.03;4332414;33;25324;-86
2022/02/20 11:24:29;;;;;;;;;;;;;;;13.62;59.94;99872.91;4333045;33;20020;-87
2022/02/20 11:26:54;;;;;;;;;;;;;;;13.72;59.94;99871.59;4319539;33;20296;-86
2022/02/20 11:29:20;;;;;;;;;;;;;;;13.43;59.93;99867.59;4319332;33;20025;-87
2022/02/20 11:31:45;;;;;;;;;;;;;;;13.42;59.93;99867.66;4320486;33;20321;-86
2022/02/20 11:34:11;;;;;;;;;;;;;;;13.15;59.91;99862.63;4320465;33;19999;-86
2022/02/20 11:36:36;;;;;;;;;;;;;;;13.31;59.92;99852.44;4321139;33;29947;-87
2022/02/20 11:39:05;;;;;;;;;;;;;;;13.48;59.93;99846.47;4335797;33;20348;-87
2022/02/20 11:41:30;;;;;;;;;;;;;;;13.54;59.93;99850.59;4327107;33;20007;-87
2022/02/20 11:43:57;;;;;;;;;;;;;;;13.40;59.93;99843.34;4335204;33;19960;-86
2022/02/20 11:46:22;;;;;;;;;;;;;;;13.49;59.94;99840.34;4339139;33;19990;-86
2022/02/20 11:49:03;;;;;;;;;;;;;;;13.75;59.95;99821.75;4333021;33;20440;-86
2022/02/20 11:51:30;;;;;;;;;;;;;;;14.02;59.96;99813.59;4319277;33;20338;-88
2022/02/20 11:54:28;;;;;;;;;;;;;;;14.03;59.97;99792.59;4332879;33;20017;-87
2022/02/20 11:57:11;;;;;;;;;;;;;;;13.77;59.95;99819.94;4306787;33;20002;-86
2022/02/20 11:59:37;;;;;;;;;;;;;;;13.55;59.93;99811.31;4319179;33;20014;-86
2022/02/20 12:02:14;;;;;;;;;;;;;;;13.68;59.94;99811.63;4319218;33;20043;-87
2022/02/20 12:05:06;;;;;;;;;;;;;;;13.80;59.95;99811.09;4319619;33;20289;-87
2022/02/20 12:07:38;;;;;;;;;;;;;;;13.88;59.95;99808.13;4327397;33;20337;-87
2022/02/20 12:10:27;;;;;;;;;;;;;;;13.47;59.93;99823.84;4320311;33;20062;-87
2022/02/20 12:12:55;;;;;;;;;;;;;;;13.27;59.92;99811.66;4332464;33;19980;-86
2022/02/20 12:15:24;;;;;;;;;;;;;;;13.56;59.95;99817.41;4332693;33;19979;-87
2022/02/20 12:17:59;;;;;;;;;;;;;;;13.44;59.93;99817.00;4318900;33;19988;-86
2022/02/20 12:20:43;;;;;;;;;;;;;;;13.09;59.91;99820.22;4332562;33;20691;-87
2022/02/20 12:23:08;;;;;;;;;;;;;;;13.23;59.91;99810.03;4319113;33;20353;-86
2022/02/20 12:25:37;;;;;;;;;;;;;;;13.16;59.91;99811.19;4332673;33;19988;-87
2022/02/20 12:28:06;;;;;;;;;;;;;;;13.11;59.92;99805.31;4319467;33;19983;-87
2022/02/20 12:30:31;;;;;;;;;;;;;;;13.20;59.92;99808.41;4319238;33;20303;-86
2022/02/20 12:32:59;;;;;;;;;;;;;;;13.27;59.93;99803.81;4318866;33;19995;-86
2022/02/20 12:35:26;;;;;;;;;;;;;;;13.29;59.92;99803.72;4319149;33;19967;-86
2022/02/20 12:37:52;;;;;;;;;;;;;;;13.28;59.92;99802.87;4332523;33;19984;-87
2022/02/20 12:40:21;;;;;;;;;;;;;;;13.16;59.91;99808.56;4318783;33;20293;-87
2022/02/20 12:42:56;;;;;;;;;;;;;;;12.99;59.91;99804.03;4306557;33;20016;-86
2022/02/20 12:45:25;;;;;;;;;;;;;;;13.12;59.92;99799.16;4331444;33;19984;-88